sensor_id;sensor_type;location;lat;lon;timestamp;P1;durP1;ratioP1;P2;durP2;ratioP2
19446;SDS011;9862;49.462;11.054;2023-03-15T00:01:40;3.17;;;1.85;;
19446;SDS011;9862;49.462;11.054;2023-03-15T00:04:10;7.10;;;2.03;;
19446;SDS011;9862;49.462;11.054;2023-03-15T00:06:37;4.32;;;2.13;;
19446;SDS011;9862;49.462;11.054;2023-03-15T00:09:03;6.53;;;2.15;;
19446;SDS011;9862;49.462;11.054;2023-03-15T00:11:30;6.47;;;2.15;;
19446;SDS011;9862;49.462;11.054;2023-03-15T00:13:58;3.65;;;2.15;;
19446;SDS011;9862;49.462;11.054;2023-03-15T00:16:26;8.15;;;2.00;;
19446;SDS011;9862;49.462;11.054;2023-03-15T00:18:52;6.35;;;2.22;;
19446;SDS011;9862;49.462;11.054;2023-03-15T00:21:19;4.20;;;2.05;;
19446;SDS011;9862;49.462;11.054;2023-03-15T00:23:47;5.57;;;2.47;;
19446;SDS011;9862;49.462;11.054;2023-03-15T00:26:13;5.90;;;2.28;;
19446;SDS011;9862;49.462;11.054;2023-03-15T00:28:40;7.57;;;1.98;;
19446;SDS011;9862;49.462;11.054;2023-03-15T00:31:11;8.50;;;2.00;;
19446;SDS011;9862;49.462;11.054;2023-03-15T00:33:39;4.65;;;1.98;;
19446;SDS011;9862;49.462;11.054;2023-03-15T00:36:06;4.35;;;1.88;;
19446;SDS011;9862;49.462;11.054;2023-03-15T00:38:34;7.10;;;1.73;;
19446;SDS011;9862;49.462;11.054;2023-03-15T00:41:06;6.85;;;2.20;;
19446;SDS011;9862;49.462;11.054;2023-03-15T00:43:33;7.15;;;2.05;;
19446;SDS011;9862;49.462;11.054;2023-03-15T00:46:00;6.13;;;2.10;;
19446;SDS011;9862;49.462;11.054;2023-03-15T00:48:29;5.63;;;2.13;;
19446;SDS011;9862;49.462;11.054;2023-03-15T00:51:03;5.82;;;1.70;;
19446;SDS011;9862;49.462;11.054;2023-03-15T00:53:31;8.93;;;2.47;;
19446;SDS011;9862;49.462;11.054;2023-03-15T00:56:01;6.57;;;1.90;;
19446;SDS011;9862;49.462;11.054;2023-03-15T00:58:29;2.95;;;1.60;;
19446;SDS011;9862;49.462;11.054;2023-03-15T01:00:56;6.07;;;1.98;;
19446;SDS011;9862;49.462;11.054;2023-03-15T01:03:22;4.10;;;2.08;;
19446;SDS011;9862;49.462;11.054;2023-03-15T01:05:50;6.07;;;2.03;;
19446;SDS011;9862;49.462;11.054;2023-03-15T01:08:17;5.82;;;1.80;;
19446;SDS011;9862;49.462;11.054;2023-03-15T01:10:43;2.90;;;1.75;;
19446;SDS011;9862;49.462;11.054;2023-03-15T01:13:10;6.70;;;1.85;;
19446;SDS011;9862;49.462;11.054;2023-03-15T01:15:37;6.97;;;1.98;;
19446;SDS011;9862;49.462;11.054;2023-03-15T01:18:03;7.50;;;1.52;;
19446;SDS011;9862;49.462;11.054;2023-03-15T01:20:30;4.13;;;1.65;;
19446;SDS011;9862;49.462;11.054;2023-03-15T01:22:57;6.60;;;1.80;;
19446;SDS011;9862;49.462;11.054;2023-03-15T01:25:24;7.15;;;2.13;;
19446;SDS011;9862;49.462;11.054;2023-03-15T01:27:50;5.13;;;2.00;;
19446;SDS011;9862;49.462;11.054;2023-03-15T01:30:17;3.83;;;1.60;;
19446;SDS011;9862;49.462;11.054;2023-03-15T01:32:44;5.47;;;1.92;;
19446;SDS011;9862;49.462;11.054;2023-03-15T01:35:10;3.17;;;1.60;;
19446;SDS011;9862;49.462;11.054;2023-03-15T01:37:37;3.45;;;1.88;;
19446;SDS011;9862;49.462;11.054;2023-03-15T01:40:06;4.43;;;1.98;;
19446;SDS011;9862;49.462;11.054;2023-03-15T01:42:49;3.05;;;1.63;;
19446;SDS011;9862;49.462;11.054;2023-03-15T01:48:19;3.58;;;1.67;;
19446;SDS011;9862;49.462;11.054;2023-03-15T01:50:49;4.57;;;1.90;;
19446;SDS011;9862;49.462;11.054;2023-03-15T01:53:19;3.03;;;1.58;;
19446;SDS011;9862;49.462;11.054;2023-03-15T01:55:48;3.08;;;1.20;;
19446;SDS011;9862;49.462;11.054;2023-03-15T01:58:17;2.17;;;1.48;;
19446;SDS011;9862;49.462;11.054;2023-03-15T02:00:45;2.95;;;1.27;;
19446;SDS011;9862;49.462;11.054;2023-03-15T02:03:12;5.13;;;1.30;;
19446;SDS011;9862;49.462;11.054;2023-03-15T02:05:43;2.25;;;1.20;;
19446;SDS011;9862;49.462;11.054;2023-03-15T02:08:14;4.40;;;1.65;;
19446;SDS011;9862;49.462;11.054;2023-03-15T02:10:43;3.90;;;1.30;;
19446;SDS011;9862;49.462;11.054;2023-03-15T02:13:14;2.80;;;1.40;;
19446;SDS011;9862;49.462;11.054;2023-03-15T02:15:43;2.92;;;1.33;;
19446;SDS011;9862;49.462;11.054;2023-03-15T02:18:10;1.67;;;1.40;;
19446;SDS011;9862;49.462;11.054;2023-03-15T02:20:39;3.88;;;1.48;;
19446;SDS011;9862;49.462;11.054;2023-03-15T02:23:13;2.40;;;1.13;;
19446;SDS011;9862;49.462;11.054;2023-03-15T02:25:43;1.98;;;1.52;;
19446;SDS011;9862;49.462;11.054;2023-03-15T02:28:17;5.07;;;2.08;;
19446;SDS011;9862;49.462;11.054;2023-03-15T02:30:45;5.68;;;2.08;;
19446;SDS011;9862;49.462;11.054;2023-03-15T02:33:13;3.75;;;1.80;;
19446;SDS011;9862;49.462;11.054;2023-03-15T02:35:44;6.93;;;2.05;;
19446;SDS011;9862;49.462;11.054;2023-03-15T02:38:11;4.90;;;2.65;;
19446;SDS011;9862;49.462;11.054;2023-03-15T02:40:37;4.97;;;2.35;;
19446;SDS011;9862;49.462;11.054;2023-03-15T02:43:06;12.80;;;2.80;;
19446;SDS011;9862;49.462;11.054;2023-03-15T02:45:38;4.15;;;2.20;;
19446;SDS011;9862;49.462;11.054;2023-03-15T02:48:05;5.53;;;2.28;;
19446;SDS011;9862;49.462;11.054;2023-03-15T02:50:33;4.60;;;2.40;;
19446;SDS011;9862;49.462;11.054;2023-03-15T02:53:00;5.78;;;2.03;;
19446;SDS011;9862;49.462;11.054;2023-03-15T02:55:27;4.70;;;2.60;;
19446;SDS011;9862;49.462;11.054;2023-03-15T02:57:53;6.22;;;2.20;;
19446;SDS011;9862;49.462;11.054;2023-03-15T03:00:20;2.75;;;1.70;;
19446;SDS011;9862;49.462;11.054;2023-03-15T03:02:48;3.15;;;2.10;;
19446;SDS011;9862;49.462;11.054;2023-03-15T03:05:15;6.95;;;2.33;;
19446;SDS011;9862;49.462;11.054;2023-03-15T03:07:42;4.38;;;2.10;;
19446;SDS011;9862;49.462;11.054;2023-03-15T03:10:09;3.13;;;2.00;;
19446;SDS011;9862;49.462;11.054;2023-03-15T03:12:37;4.95;;;2.63;;
19446;SDS011;9862;49.462;11.054;2023-03-15T03:15:04;4.45;;;2.25;;
19446;SDS011;9862;49.462;11.054;2023-03-15T03:17:32;4.68;;;2.65;;
19446;SDS011;9862;49.462;11.054;2023-03-15T03:20:03;5.45;;;1.75;;
19446;SDS011;9862;49.462;11.054;2023-03-15T03:22:32;6.00;;;2.33;;
19446;SDS011;9862;49.462;11.054;2023-03-15T03:24:59;5.82;;;2.30;;
19446;SDS011;9862;49.462;11.054;2023-03-15T03:27:26;4.95;;;2.03;;
19446;SDS011;9862;49.462;11.054;2023-03-15T03:29:53;3.05;;;1.95;;
19446;SDS011;9862;49.462;11.054;2023-03-15T03:32:19;4.68;;;1.92;;
19446;SDS011;9862;49.462;11.054;2023-03-15T03:34:46;6.45;;;2.17;;
19446;SDS011;9862;49.462;11.054;2023-03-15T03:37:14;6.38;;;2.10;;
19446;SDS011;9862;49.462;11.054;2023-03-15T03:39:42;7.65;;;2.65;;
19446;SDS011;9862;49.462;11.054;2023-03-15T03:42:08;5.70;;;2.53;;
19446;SDS011;9862;49.462;11.054;2023-03-15T03:44:35;5.47;;;1.92;;
19446;SDS011;9862;49.462;11.054;2023-03-15T03:47:02;4.75;;;2.35;;
19446;SDS011;9862;49.462;11.054;2023-03-15T03:49:29;7.43;;;2.47;;
19446;SDS011;9862;49.462;11.054;2023-03-15T03:51:55;5.57;;;2.38;;
19446;SDS011;9862;49.462;11.054;2023-03-15T03:54:23;8.15;;;3.13;;
19446;SDS011;9862;49.462;11.054;2023-03-15T03:56:50;9.80;;;3.15;;
19446;SDS011;9862;49.462;11.054;2023-03-15T03:59:16;9.05;;;2.83;;
19446;SDS011;9862;49.462;11.054;2023-03-15T04:01:43;8.75;;;3.20;;
19446;SDS011;9862;49.462;11.054;2023-03-15T04:04:09;8.55;;;3.45;;
19446;SDS011;9862;49.462;11.054;2023-03-15T04:06:38;8.00;;;3.42;;
19446;SDS011;9862;49.462;11.054;2023-03-15T04:09:10;7.88;;;3.72;;
19446;SDS011;9862;49.462;11.054;2023-03-15T04:11:38;13.20;;;4.45;;
19446;SDS011;9862;49.462;11.054;2023-03-15T04:14:06;10.98;;;4.07;;
19446;SDS011;9862;49.462;11.054;2023-03-15T04:16:33;5.30;;;2.97;;
19446;SDS011;9862;49.462;11.054;2023-03-15T04:19:00;9.48;;;4.28;;
19446;SDS011;9862;49.462;11.054;2023-03-15T04:21:27;10.73;;;4.15;;
19446;SDS011;9862;49.462;11.054;2023-03-15T04:23:56;7.38;;;4.80;;
19446;SDS011;9862;49.462;11.054;2023-03-15T04:26:23;10.40;;;4.13;;
19446;SDS011;9862;49.462;11.054;2023-03-15T04:28:52;6.72;;;3.80;;
19446;SDS011;9862;49.462;11.054;2023-03-15T04:31:19;11.32;;;4.60;;
19446;SDS011;9862;49.462;11.054;2023-03-15T04:33:45;8.43;;;4.10;;
19446;SDS011;9862;49.462;11.054;2023-03-15T04:36:12;10.75;;;4.10;;
19446;SDS011;9862;49.462;11.054;2023-03-15T04:38:42;11.45;;;5.72;;
19446;SDS011;9862;49.462;11.054;2023-03-15T04:41:10;13.15;;;4.63;;
19446;SDS011;9862;49.462;11.054;2023-03-15T04:43:37;7.20;;;3.90;;
19446;SDS011;9862;49.462;11.054;2023-03-15T04:46:06;8.55;;;4.43;;
19446;SDS011;9862;49.462;11.054;2023-03-15T04:48:32;9.77;;;4.22;;
19446;SDS011;9862;49.462;11.054;2023-03-15T04:50:59;10.13;;;4.50;;
19446;SDS011;9862;49.462;11.054;2023-03-15T04:53:25;9.70;;;4.22;;
19446;SDS011;9862;49.462;11.054;2023-03-15T04:55:52;9.68;;;5.78;;
19446;SDS011;9862;49.462;11.054;2023-03-15T04:58:19;9.18;;;4.13;;
19446;SDS011;9862;49.462;11.054;2023-03-15T05:00:46;10.05;;;4.95;;
19446;SDS011;9862;49.462;11.054;2023-03-15T05:03:14;16.60;;;5.50;;
19446;SDS011;9862;49.462;11.054;2023-03-15T05:05:40;10.50;;;4.82;;
19446;SDS011;9862;49.462;11.054;2023-03-15T05:08:07;12.75;;;5.13;;
19446;SDS011;9862;49.462;11.054;2023-03-15T05:10:33;11.93;;;4.82;;
19446;SDS011;9862;49.462;11.054;2023-03-15T05:13:00;16.02;;;5.07;;
19446;SDS011;9862;49.462;11.054;2023-03-15T05:15:26;12.20;;;5.22;;
19446;SDS011;9862;49.462;11.054;2023-03-15T05:17:53;12.70;;;5.55;;
19446;SDS011;9862;49.462;11.054;2023-03-15T05:20:21;14.60;;;5.38;;
19446;SDS011;9862;49.462;11.054;2023-03-15T05:22:47;12.75;;;5.32;;
19446;SDS011;9862;49.462;11.054;2023-03-15T05:25:14;11.70;;;5.55;;
19446;SDS011;9862;49.462;11.054;2023-03-15T05:27:41;14.23;;;5.82;;
19446;SDS011;9862;49.462;11.054;2023-03-15T05:30:11;13.63;;;6.80;;
19446;SDS011;9862;49.462;11.054;2023-03-15T05:32:39;11.88;;;5.82;;
19446;SDS011;9862;49.462;11.054;2023-03-15T05:35:08;11.57;;;5.05;;
19446;SDS011;9862;49.462;11.054;2023-03-15T05:37:38;14.27;;;5.30;;
19446;SDS011;9862;49.462;11.054;2023-03-15T05:40:05;12.68;;;5.47;;
19446;SDS011;9862;49.462;11.054;2023-03-15T05:42:33;15.23;;;5.25;;
19446;SDS011;9862;49.462;11.054;2023-03-15T05:45:00;10.63;;;4.85;;
19446;SDS011;9862;49.462;11.054;2023-03-15T05:47:27;11.90;;;5.47;;
19446;SDS011;9862;49.462;11.054;2023-03-15T05:49:53;14.93;;;5.43;;
19446;SDS011;9862;49.462;11.054;2023-03-15T05:52:20;14.13;;;4.88;;
19446;SDS011;9862;49.462;11.054;2023-03-15T05:54:48;15.25;;;5.15;;
19446;SDS011;9862;49.462;11.054;2023-03-15T05:57:14;11.38;;;4.82;;
19446;SDS011;9862;49.462;11.054;2023-03-15T05:59:41;10.68;;;5.38;;
19446;SDS011;9862;49.462;11.054;2023-03-15T06:02:07;11.93;;;4.70;;
19446;SDS011;9862;49.462;11.054;2023-03-15T06:04:34;9.80;;;5.05;;
19446;SDS011;9862;49.462;11.054;2023-03-15T06:07:02;10.68;;;5.43;;
19446;SDS011;9862;49.462;11.054;2023-03-15T06:09:29;15.13;;;5.75;;
19446;SDS011;9862;49.462;11.054;2023-03-15T06:11:57;16.88;;;5.47;;
19446;SDS011;9862;49.462;11.054;2023-03-15T06:14:24;18.10;;;7.72;;
19446;SDS011;9862;49.462;11.054;2023-03-15T06:16:51;11.52;;;6.00;;
19446;SDS011;9862;49.462;11.054;2023-03-15T06:19:17;12.68;;;5.75;;
19446;SDS011;9862;49.462;11.054;2023-03-15T06:21:44;13.07;;;5.65;;
19446;SDS011;9862;49.462;11.054;2023-03-15T06:24:10;13.80;;;5.32;;
19446;SDS011;9862;49.462;11.054;2023-03-15T06:26:37;17.33;;;5.60;;
19446;SDS011;9862;49.462;11.054;2023-03-15T06:29:05;14.65;;;5.25;;
19446;SDS011;9862;49.462;11.054;2023-03-15T06:31:31;13.93;;;6.13;;
19446;SDS011;9862;49.462;11.054;2023-03-15T06:33:58;16.02;;;5.05;;
19446;SDS011;9862;49.462;11.054;2023-03-15T06:36:25;14.57;;;5.93;;
19446;SDS011;9862;49.462;11.054;2023-03-15T06:38:52;13.32;;;5.20;;
19446;SDS011;9862;49.462;11.054;2023-03-15T06:41:19;14.25;;;4.97;;
19446;SDS011;9862;49.462;11.054;2023-03-15T06:43:45;10.90;;;5.38;;
19446;SDS011;9862;49.462;11.054;2023-03-15T06:46:13;13.95;;;6.38;;
19446;SDS011;9862;49.462;11.054;2023-03-15T06:48:40;11.70;;;5.88;;
19446;SDS011;9862;49.462;11.054;2023-03-15T06:51:07;12.90;;;6.18;;
19446;SDS011;9862;49.462;11.054;2023-03-15T06:53:33;13.68;;;5.60;;
19446;SDS011;9862;49.462;11.054;2023-03-15T06:56:00;12.10;;;5.40;;
19446;SDS011;9862;49.462;11.054;2023-03-15T06:58:26;17.02;;;7.30;;
19446;SDS011;9862;49.462;11.054;2023-03-15T07:00:53;10.57;;;6.40;;
19446;SDS011;9862;49.462;11.054;2023-03-15T07:03:21;14.40;;;5.35;;
19446;SDS011;9862;49.462;11.054;2023-03-15T07:05:47;15.48;;;5.50;;
19446;SDS011;9862;49.462;11.054;2023-03-15T07:08:16;12.85;;;5.88;;
19446;SDS011;9862;49.462;11.054;2023-03-15T07:10:43;9.27;;;5.25;;
19446;SDS011;9862;49.462;11.054;2023-03-15T07:13:10;9.38;;;5.13;;
19446;SDS011;9862;49.462;11.054;2023-03-15T07:15:37;15.25;;;6.38;;
19446;SDS011;9862;49.462;11.054;2023-03-15T07:18:04;13.90;;;6.18;;
19446;SDS011;9862;49.462;11.054;2023-03-15T07:20:32;10.60;;;5.18;;
19446;SDS011;9862;49.462;11.054;2023-03-15T07:22:59;14.45;;;5.30;;
19446;SDS011;9862;49.462;11.054;2023-03-15T07:25:25;11.48;;;6.00;;
19446;SDS011;9862;49.462;11.054;2023-03-15T07:27:52;11.10;;;5.50;;
19446;SDS011;9862;49.462;11.054;2023-03-15T07:30:19;13.68;;;5.15;;
19446;SDS011;9862;49.462;11.054;2023-03-15T07:32:46;9.00;;;5.40;;
19446;SDS011;9862;49.462;11.054;2023-03-15T07:35:13;10.27;;;4.50;;
19446;SDS011;9862;49.462;11.054;2023-03-15T07:37:42;11.65;;;4.75;;
19446;SDS011;9862;49.462;11.054;2023-03-15T07:40:09;12.65;;;5.13;;
19446;SDS011;9862;49.462;11.054;2023-03-15T07:42:38;13.48;;;5.00;;
19446;SDS011;9862;49.462;11.054;2023-03-15T07:45:05;12.60;;;4.57;;
19446;SDS011;9862;49.462;11.054;2023-03-15T07:47:33;7.72;;;5.13;;
19446;SDS011;9862;49.462;11.054;2023-03-15T07:50:00;10.13;;;4.90;;
19446;SDS011;9862;49.462;11.054;2023-03-15T07:52:27;8.23;;;4.38;;
19446;SDS011;9862;49.462;11.054;2023-03-15T07:54:56;9.23;;;5.00;;
19446;SDS011;9862;49.462;11.054;2023-03-15T07:57:22;5.93;;;4.28;;
19446;SDS011;9862;49.462;11.054;2023-03-15T07:59:49;6.63;;;4.63;;
19446;SDS011;9862;49.462;11.054;2023-03-15T08:02:16;10.85;;;4.50;;
19446;SDS011;9862;49.462;11.054;2023-03-15T08:04:43;9.43;;;4.97;;
19446;SDS011;9862;49.462;11.054;2023-03-15T08:07:09;8.15;;;4.38;;
19446;SDS011;9862;49.462;11.054;2023-03-15T08:09:36;8.65;;;4.30;;
19446;SDS011;9862;49.462;11.054;2023-03-15T08:12:05;8.30;;;3.97;;
19446;SDS011;9862;49.462;11.054;2023-03-15T08:14:32;9.60;;;4.70;;
19446;SDS011;9862;49.462;11.054;2023-03-15T08:16:58;12.32;;;5.45;;
19446;SDS011;9862;49.462;11.054;2023-03-15T08:19:25;10.85;;;3.92;;
19446;SDS011;9862;49.462;11.054;2023-03-15T08:21:52;10.05;;;4.32;;
19446;SDS011;9862;49.462;11.054;2023-03-15T08:24:18;9.73;;;5.10;;
19446;SDS011;9862;49.462;11.054;2023-03-15T08:26:46;12.40;;;4.70;;
19446;SDS011;9862;49.462;11.054;2023-03-15T08:29:14;8.73;;;3.97;;
19446;SDS011;9862;49.462;11.054;2023-03-15T08:31:41;7.22;;;4.38;;
19446;SDS011;9862;49.462;11.054;2023-03-15T08:34:07;10.07;;;3.80;;
19446;SDS011;9862;49.462;11.054;2023-03-15T08:36:34;6.55;;;3.38;;
19446;SDS011;9862;49.462;11.054;2023-03-15T08:39:00;7.45;;;3.55;;
19446;SDS011;9862;49.462;11.054;2023-03-15T08:41:29;7.97;;;4.30;;
19446;SDS011;9862;49.462;11.054;2023-03-15T08:43:56;12.00;;;3.72;;
19446;SDS011;9862;49.462;11.054;2023-03-15T08:46:23;10.45;;;3.42;;
19446;SDS011;9862;49.462;11.054;2023-03-15T08:48:50;7.70;;;3.97;;
19446;SDS011;9862;49.462;11.054;2023-03-15T08:51:17;8.35;;;3.13;;
19446;SDS011;9862;49.462;11.054;2023-03-15T08:53:46;7.13;;;3.45;;
19446;SDS011;9862;49.462;11.054;2023-03-15T08:56:13;8.20;;;3.05;;
19446;SDS011;9862;49.462;11.054;2023-03-15T08:58:39;6.95;;;3.17;;
19446;SDS011;9862;49.462;11.054;2023-03-15T09:01:06;5.47;;;2.80;;
19446;SDS011;9862;49.462;11.054;2023-03-15T09:03:34;13.18;;;3.25;;
19446;SDS011;9862;49.462;11.054;2023-03-15T09:06:01;12.10;;;3.28;;
19446;SDS011;9862;49.462;11.054;2023-03-15T09:08:27;5.22;;;3.03;;
19446;SDS011;9862;49.462;11.054;2023-03-15T09:10:54;9.43;;;2.90;;
19446;SDS011;9862;49.462;11.054;2023-03-15T09:13:21;7.43;;;2.80;;
19446;SDS011;9862;49.462;11.054;2023-03-15T09:15:49;7.32;;;3.70;;
19446;SDS011;9862;49.462;11.054;2023-03-15T09:18:16;9.05;;;3.33;;
19446;SDS011;9862;49.462;11.054;2023-03-15T09:20:44;7.85;;;3.13;;
19446;SDS011;9862;49.462;11.054;2023-03-15T09:23:11;9.25;;;3.78;;
19446;SDS011;9862;49.462;11.054;2023-03-15T09:25:38;8.68;;;2.33;;
19446;SDS011;9862;49.462;11.054;2023-03-15T09:28:05;3.90;;;2.28;;
19446;SDS011;9862;49.462;11.054;2023-03-15T09:30:35;10.05;;;2.45;;
19446;SDS011;9862;49.462;11.054;2023-03-15T09:33:04;9.75;;;2.63;;
19446;SDS011;9862;49.462;11.054;2023-03-15T09:35:30;5.35;;;2.13;;
19446;SDS011;9862;49.462;11.054;2023-03-15T09:37:58;9.20;;;3.88;;
19446;SDS011;9862;49.462;11.054;2023-03-15T09:40:26;4.68;;;2.47;;
19446;SDS011;9862;49.462;11.054;2023-03-15T09:43:03;7.18;;;2.42;;
19446;SDS011;9862;49.462;11.054;2023-03-15T09:45:50;6.95;;;2.67;;
19446;SDS011;9862;49.462;11.054;2023-03-15T09:48:28;8.50;;;2.63;;
19446;SDS011;9862;49.462;11.054;2023-03-15T09:50:59;5.40;;;2.42;;
19446;SDS011;9862;49.462;11.054;2023-03-15T09:53:31;6.40;;;2.80;;
19446;SDS011;9862;49.462;11.054;2023-03-15T09:56:02;9.35;;;3.13;;
19446;SDS011;9862;49.462;11.054;2023-03-15T09:58:30;4.95;;;2.20;;
19446;SDS011;9862;49.462;11.054;2023-03-15T10:00:59;6.68;;;2.63;;
19446;SDS011;9862;49.462;11.054;2023-03-15T10:03:31;11.82;;;3.22;;
19446;SDS011;9862;49.462;11.054;2023-03-15T10:06:10;9.70;;;2.95;;
19446;SDS011;9862;49.462;11.054;2023-03-15T10:08:43;6.30;;;2.50;;
19446;SDS011;9862;49.462;11.054;2023-03-15T10:11:11;7.32;;;2.75;;
19446;SDS011;9862;49.462;11.054;2023-03-15T10:16:37;12.25;;;3.72;;
19446;SDS011;9862;49.462;11.054;2023-03-15T10:19:10;12.30;;;3.20;;
19446;SDS011;9862;49.462;11.054;2023-03-15T10:21:43;8.90;;;3.95;;
19446;SDS011;9862;49.462;11.054;2023-03-15T10:24:19;5.85;;;3.55;;
19446;SDS011;9862;49.462;11.054;2023-03-15T10:26:47;10.10;;;3.20;;
19446;SDS011;9862;49.462;11.054;2023-03-15T10:29:18;8.27;;;3.50;;
19446;SDS011;9862;49.462;11.054;2023-03-15T10:31:49;7.15;;;3.13;;
19446;SDS011;9862;49.462;11.054;2023-03-15T10:34:19;7.95;;;3.13;;
19446;SDS011;9862;49.462;11.054;2023-03-15T10:36:47;11.65;;;2.65;;
19446;SDS011;9862;49.462;11.054;2023-03-15T10:39:19;6.22;;;3.42;;
19446;SDS011;9862;49.462;11.054;2023-03-15T10:41:47;6.47;;;2.90;;
19446;SDS011;9862;49.462;11.054;2023-03-15T10:44:16;7.55;;;2.85;;
19446;SDS011;9862;49.462;11.054;2023-03-15T10:46:57;13.10;;;3.10;;
19446;SDS011;9862;49.462;11.054;2023-03-15T10:49:31;9.05;;;3.55;;
19446;SDS011;9862;49.462;11.054;2023-03-15T10:51:59;4.43;;;2.22;;
19446;SDS011;9862;49.462;11.054;2023-03-15T10:54:27;8.45;;;2.83;;
19446;SDS011;9862;49.462;11.054;2023-03-15T10:56:56;7.50;;;2.38;;
19446;SDS011;9862;49.462;11.054;2023-03-15T10:59:26;7.15;;;2.10;;
19446;SDS011;9862;49.462;11.054;2023-03-15T11:02:06;9.20;;;2.45;;
19446;SDS011;9862;49.462;11.054;2023-03-15T11:04:40;9.05;;;2.78;;
19446;SDS011;9862;49.462;11.054;2023-03-15T11:07:08;6.70;;;1.92;;
19446;SDS011;9862;49.462;11.054;2023-03-15T11:09:39;3.03;;;1.83;;
19446;SDS011;9862;49.462;11.054;2023-03-15T11:12:07;4.88;;;2.00;;
19446;SDS011;9862;49.462;11.054;2023-03-15T11:14:36;8.55;;;2.30;;
19446;SDS011;9862;49.462;11.054;2023-03-15T11:17:06;11.10;;;2.90;;
19446;SDS011;9862;49.462;11.054;2023-03-15T11:19:40;7.85;;;2.05;;
19446;SDS011;9862;49.462;11.054;2023-03-15T11:22:11;8.95;;;2.58;;
19446;SDS011;9862;49.462;11.054;2023-03-15T11:24:40;9.82;;;2.30;;
19446;SDS011;9862;49.462;11.054;2023-03-15T11:27:08;6.10;;;2.30;;
19446;SDS011;9862;49.462;11.054;2023-03-15T11:29:38;7.13;;;2.47;;
19446;SDS011;9862;49.462;11.054;2023-03-15T11:32:09;5.22;;;2.10;;
19446;SDS011;9862;49.462;11.054;2023-03-15T11:34:40;12.02;;;2.50;;
19446;SDS011;9862;49.462;11.054;2023-03-15T11:37:13;10.38;;;3.70;;
19446;SDS011;9862;49.462;11.054;2023-03-15T11:39:46;6.43;;;2.65;;
19446;SDS011;9862;49.462;11.054;2023-03-15T11:42:21;8.45;;;2.28;;
19446;SDS011;9862;49.462;11.054;2023-03-15T11:44:53;7.38;;;2.53;;
19446;SDS011;9862;49.462;11.054;2023-03-15T11:47:25;7.00;;;2.88;;
19446;SDS011;9862;49.462;11.054;2023-03-15T11:50:01;8.93;;;3.15;;
19446;SDS011;9862;49.462;11.054;2023-03-15T11:52:28;6.15;;;2.35;;
19446;SDS011;9862;49.462;11.054;2023-03-15T11:54:57;6.20;;;2.67;;
19446;SDS011;9862;49.462;11.054;2023-03-15T11:57:36;4.97;;;2.40;;
19446;SDS011;9862;49.462;11.054;2023-03-15T12:03:24;4.28;;;2.28;;
19446;SDS011;9862;49.462;11.054;2023-03-15T12:05:59;6.95;;;2.10;;
19446;SDS011;9862;49.462;11.054;2023-03-15T12:08:45;3.97;;;1.73;;
19446;SDS011;9862;49.462;11.054;2023-03-15T12:14:08;6.07;;;1.98;;
19446;SDS011;9862;49.462;11.054;2023-03-15T12:16:47;3.78;;;2.55;;
19446;SDS011;9862;49.462;11.054;2023-03-15T12:19:15;4.80;;;2.25;;
19446;SDS011;9862;49.462;11.054;2023-03-15T12:21:44;4.82;;;1.95;;
19446;SDS011;9862;49.462;11.054;2023-03-15T12:24:14;4.78;;;1.88;;
19446;SDS011;9862;49.462;11.054;2023-03-15T12:26:48;5.95;;;2.45;;
19446;SDS011;9862;49.462;11.054;2023-03-15T12:29:23;5.53;;;1.85;;
19446;SDS011;9862;49.462;11.054;2023-03-15T12:31:55;2.78;;;1.67;;
19446;SDS011;9862;49.462;11.054;2023-03-15T12:34:26;5.88;;;2.35;;
19446;SDS011;9862;49.462;11.054;2023-03-15T12:36:57;3.75;;;2.03;;
19446;SDS011;9862;49.462;11.054;2023-03-15T12:39:35;4.65;;;1.83;;
19446;SDS011;9862;49.462;11.054;2023-03-15T12:42:12;4.10;;;1.70;;
19446;SDS011;9862;49.462;11.054;2023-03-15T12:50:51;3.28;;;1.75;;
19446;SDS011;9862;49.462;11.054;2023-03-15T12:53:20;4.57;;;1.88;;
19446;SDS011;9862;49.462;11.054;2023-03-15T12:55:51;4.20;;;1.80;;
19446;SDS011;9862;49.462;11.054;2023-03-15T12:58:20;5.70;;;2.20;;
19446;SDS011;9862;49.462;11.054;2023-03-15T13:00:52;3.95;;;2.15;;
19446;SDS011;9862;49.462;11.054;2023-03-15T13:03:20;3.60;;;2.30;;
19446;SDS011;9862;49.462;11.054;2023-03-15T13:05:49;7.90;;;2.22;;
19446;SDS011;9862;49.462;11.054;2023-03-15T13:08:22;3.72;;;2.13;;
19446;SDS011;9862;49.462;11.054;2023-03-15T13:10:56;6.60;;;1.90;;
19446;SDS011;9862;49.462;11.054;2023-03-15T13:13:43;4.32;;;1.63;;
19446;SDS011;9862;49.462;11.054;2023-03-15T13:16:20;4.60;;;1.45;;
19446;SDS011;9862;49.462;11.054;2023-03-15T13:18:58;2.47;;;1.70;;
19446;SDS011;9862;49.462;11.054;2023-03-15T13:21:30;6.38;;;1.65;;
19446;SDS011;9862;49.462;11.054;2023-03-15T13:24:02;16.70;;;1.98;;
19446;SDS011;9862;49.462;11.054;2023-03-15T13:26:40;5.85;;;2.05;;
19446;SDS011;9862;49.462;11.054;2023-03-15T13:29:15;2.67;;;1.50;;
19446;SDS011;9862;49.462;11.054;2023-03-15T13:31:45;5.40;;;1.40;;
19446;SDS011;9862;49.462;11.054;2023-03-15T13:34:13;3.05;;;1.85;;
19446;SDS011;9862;49.462;11.054;2023-03-15T13:36:42;4.05;;;1.75;;
19446;SDS011;9862;49.462;11.054;2023-03-15T13:39:15;5.35;;;2.00;;
19446;SDS011;9862;49.462;11.054;2023-03-15T13:41:47;3.90;;;1.73;;
19446;SDS011;9862;49.462;11.054;2023-03-15T13:44:17;2.10;;;1.48;;
19446;SDS011;9862;49.462;11.054;2023-03-15T13:46:48;2.47;;;1.60;;
19446;SDS011;9862;49.462;11.054;2023-03-15T13:49:15;2.08;;;1.67;;
19446;SDS011;9862;49.462;11.054;2023-03-15T13:51:42;6.28;;;1.83;;
19446;SDS011;9862;49.462;11.054;2023-03-15T13:54:11;4.13;;;2.10;;
19446;SDS011;9862;49.462;11.054;2023-03-15T13:56:44;4.25;;;1.70;;
19446;SDS011;9862;49.462;11.054;2023-03-15T13:59:22;2.40;;;1.88;;
19446;SDS011;9862;49.462;11.054;2023-03-15T14:01:52;4.18;;;1.48;;
19446;SDS011;9862;49.462;11.054;2023-03-15T14:04:19;3.88;;;2.08;;
19446;SDS011;9862;49.462;11.054;2023-03-15T14:06:48;4.70;;;2.10;;
19446;SDS011;9862;49.462;11.054;2023-03-15T14:09:19;4.50;;;1.98;;
19446;SDS011;9862;49.462;11.054;2023-03-15T14:11:59;2.03;;;1.73;;
19446;SDS011;9862;49.462;11.054;2023-03-15T14:14:28;4.25;;;2.13;;
19446;SDS011;9862;49.462;11.054;2023-03-15T14:16:57;4.18;;;1.60;;
19446;SDS011;9862;49.462;11.054;2023-03-15T14:19:26;2.63;;;2.10;;
19446;SDS011;9862;49.462;11.054;2023-03-15T14:21:56;2.50;;;1.90;;
19446;SDS011;9862;49.462;11.054;2023-03-15T14:24:28;3.65;;;1.98;;
19446;SDS011;9862;49.462;11.054;2023-03-15T14:26:57;4.38;;;2.17;;
19446;SDS011;9862;49.462;11.054;2023-03-15T14:29:27;3.53;;;2.15;;
19446;SDS011;9862;49.462;11.054;2023-03-15T14:31:58;2.58;;;1.77;;
19446;SDS011;9862;49.462;11.054;2023-03-15T14:34:30;2.25;;;1.98;;
19446;SDS011;9862;49.462;11.054;2023-03-15T14:36:59;2.03;;;1.85;;
19446;SDS011;9862;49.462;11.054;2023-03-15T14:39:29;3.88;;;2.42;;
19446;SDS011;9862;49.462;11.054;2023-03-15T14:41:57;2.35;;;1.80;;
19446;SDS011;9862;49.462;11.054;2023-03-15T14:44:23;3.25;;;2.10;;
19446;SDS011;9862;49.462;11.054;2023-03-15T14:46:51;3.58;;;2.00;;
19446;SDS011;9862;49.462;11.054;2023-03-15T14:49:20;4.47;;;1.98;;
19446;SDS011;9862;49.462;11.054;2023-03-15T14:51:51;1.83;;;1.73;;
19446;SDS011;9862;49.462;11.054;2023-03-15T14:54:22;2.45;;;1.95;;
19446;SDS011;9862;49.462;11.054;2023-03-15T14:56:49;3.58;;;1.90;;
19446;SDS011;9862;49.462;11.054;2023-03-15T14:59:15;2.35;;;1.70;;
19446;SDS011;9862;49.462;11.054;2023-03-15T15:01:43;1.88;;;1.70;;
19446;SDS011;9862;49.462;11.054;2023-03-15T15:04:15;2.78;;;1.90;;
19446;SDS011;9862;49.462;11.054;2023-03-15T15:06:43;9.10;;;2.95;;
19446;SDS011;9862;49.462;11.054;2023-03-15T15:09:16;2.88;;;2.03;;
19446;SDS011;9862;49.462;11.054;2023-03-15T15:11:46;3.88;;;2.58;;